sensor_id;sensor_type;location;lat;lon;timestamp;P1;durP1;ratioP1;P2;durP2;ratioP2
8500;SDS011;4288;48.484;10.024;2024-02-21T00:01:49;5.63;;;2.10;;
8500;SDS011;4288;48.484;10.024;2024-02-21T00:04:16;4.93;;;2.00;;
8500;SDS011;4288;48.484;10.024;2024-02-21T00:06:44;6.93;;;1.67;;
8500;SDS011;4288;48.484;10.024;2024-02-21T00:09:12;3.80;;;1.67;;
8500;SDS011;4288;48.484;10.024;2024-02-21T00:11:40;5.90;;;2.07;;
8500;SDS011;4288;48.484;10.024;2024-02-21T00:14:07;7.50;;;2.40;;
8500;SDS011;4288;48.484;10.024;2024-02-21T00:16:34;3.70;;;1.53;;
8500;SDS011;4288;48.484;10.024;2024-02-21T00:19:02;6.00;;;1.93;;
8500;SDS011;4288;48.484;10.024;2024-02-21T00:21:29;5.60;;;1.80;;
8500;SDS011;4288;48.484;10.024;2024-02-21T00:23:57;6.50;;;2.00;;
8500;SDS011;4288;48.484;10.024;2024-02-21T00:26:26;3.07;;;2.00;;
8500;SDS011;4288;48.484;10.024;2024-02-21T00:28:53;3.50;;;1.60;;
8500;SDS011;4288;48.484;10.024;2024-02-21T00:31:20;15.87;;;2.33;;
8500;SDS011;4288;48.484;10.024;2024-02-21T00:33:48;5.53;;;2.20;;
8500;SDS011;4288;48.484;10.024;2024-02-21T00:36:15;4.00;;;1.87;;
8500;SDS011;4288;48.484;10.024;2024-02-21T00:38:43;4.27;;;1.50;;
8500;SDS011;4288;48.484;10.024;2024-02-21T00:41:10;6.17;;;2.20;;
8500;SDS011;4288;48.484;10.024;2024-02-21T00:43:42;5.10;;;2.20;;
8500;SDS011;4288;48.484;10.024;2024-02-21T00:46:09;4.70;;;1.97;;
8500;SDS011;4288;48.484;10.024;2024-02-21T00:48:36;4.33;;;2.10;;
8500;SDS011;4288;48.484;10.024;2024-02-21T00:51:04;2.93;;;1.77;;
8500;SDS011;4288;48.484;10.024;2024-02-21T00:53:31;7.60;;;1.80;;
8500;SDS011;4288;48.484;10.024;2024-02-21T00:55:58;3.87;;;2.30;;
8500;SDS011;4288;48.484;10.024;2024-02-21T00:58:26;2.93;;;1.80;;
8500;SDS011;4288;48.484;10.024;2024-02-21T01:00:55;4.33;;;1.63;;
8500;SDS011;4288;48.484;10.024;2024-02-21T01:03:22;3.43;;;2.27;;
8500;SDS011;4288;48.484;10.024;2024-02-21T01:05:49;8.50;;;1.73;;
8500;SDS011;4288;48.484;10.024;2024-02-21T01:08:17;11.70;;;1.83;;
8500;SDS011;4288;48.484;10.024;2024-02-21T01:10:44;8.03;;;1.80;;
8500;SDS011;4288;48.484;10.024;2024-02-21T01:13:11;6.63;;;1.37;;
8500;SDS011;4288;48.484;10.024;2024-02-21T01:15:39;7.53;;;1.87;;
8500;SDS011;4288;48.484;10.024;2024-02-21T01:18:08;6.90;;;1.60;;
8500;SDS011;4288;48.484;10.024;2024-02-21T01:20:35;2.00;;;1.40;;
8500;SDS011;4288;48.484;10.024;2024-02-21T01:23:02;13.83;;;1.70;;
8500;SDS011;4288;48.484;10.024;2024-02-21T01:25:30;2.80;;;1.37;;
8500;SDS011;4288;48.484;10.024;2024-02-21T01:27:58;4.83;;;1.67;;
8500;SDS011;4288;48.484;10.024;2024-02-21T01:30:25;7.87;;;2.20;;
8500;SDS011;4288;48.484;10.024;2024-02-21T01:32:52;4.60;;;1.70;;
8500;SDS011;4288;48.484;10.024;2024-02-21T01:35:21;1.80;;;1.40;;
8500;SDS011;4288;48.484;10.024;2024-02-21T01:37:48;6.33;;;1.73;;
8500;SDS011;4288;48.484;10.024;2024-02-21T01:40:17;5.33;;;1.60;;
8500;SDS011;4288;48.484;10.024;2024-02-21T01:42:44;6.87;;;2.40;;
8500;SDS011;4288;48.484;10.024;2024-02-21T01:45:13;6.17;;;2.60;;
8500;SDS011;4288;48.484;10.024;2024-02-21T01:47:40;6.40;;;2.20;;
8500;SDS011;4288;48.484;10.024;2024-02-21T01:50:08;6.40;;;1.70;;
8500;SDS011;4288;48.484;10.024;2024-02-21T01:52:37;4.20;;;1.83;;
8500;SDS011;4288;48.484;10.024;2024-02-21T01:55:05;3.13;;;2.00;;
8500;SDS011;4288;48.484;10.024;2024-02-21T01:57:34;9.83;;;2.03;;
8500;SDS011;4288;48.484;10.024;2024-02-21T02:00:01;7.03;;;2.00;;
8500;SDS011;4288;48.484;10.024;2024-02-21T02:02:29;3.63;;;1.50;;
8500;SDS011;4288;48.484;10.024;2024-02-21T02:04:57;1.20;;;1.10;;
8500;SDS011;4288;48.484;10.024;2024-02-21T02:07:25;5.23;;;1.60;;
8500;SDS011;4288;48.484;10.024;2024-02-21T02:09:54;7.23;;;1.70;;
8500;SDS011;4288;48.484;10.024;2024-02-21T02:12:21;7.20;;;1.60;;
8500;SDS011;4288;48.484;10.024;2024-02-21T02:14:57;6.23;;;1.43;;
8500;SDS011;4288;48.484;10.024;2024-02-21T02:17:25;10.23;;;2.10;;
8500;SDS011;4288;48.484;10.024;2024-02-21T02:19:52;9.47;;;2.00;;
8500;SDS011;4288;48.484;10.024;2024-02-21T02:22:21;6.43;;;1.60;;
8500;SDS011;4288;48.484;10.024;2024-02-21T02:24:56;6.13;;;1.60;;
8500;SDS011;4288;48.484;10.024;2024-02-21T02:27:24;5.50;;;1.50;;
8500;SDS011;4288;48.484;10.024;2024-02-21T02:29:51;5.30;;;1.33;;
8500;SDS011;4288;48.484;10.024;2024-02-21T02:32:18;6.37;;;1.60;;
8500;SDS011;4288;48.484;10.024;2024-02-21T02:34:46;4.80;;;1.80;;
8500;SDS011;4288;48.484;10.024;2024-02-21T02:37:13;9.10;;;1.60;;
8500;SDS011;4288;48.484;10.024;2024-02-21T02:39:41;5.60;;;1.50;;
8500;SDS011;4288;48.484;10.024;2024-02-21T02:42:09;4.17;;;1.20;;
8500;SDS011;4288;48.484;10.024;2024-02-21T02:44:37;3.27;;;1.47;;
8500;SDS011;4288;48.484;10.024;2024-02-21T02:47:04;5.37;;;1.53;;
8500;SDS011;4288;48.484;10.024;2024-02-21T02:49:32;5.03;;;1.60;;
8500;SDS011;4288;48.484;10.024;2024-02-21T02:51:59;5.60;;;1.37;;
8500;SDS011;4288;48.484;10.024;2024-02-21T02:54:26;8.93;;;1.40;;
8500;SDS011;4288;48.484;10.024;2024-02-21T02:56:54;6.27;;;1.47;;
8500;SDS011;4288;48.484;10.024;2024-02-21T02:59:23;9.57;;;2.27;;
8500;SDS011;4288;48.484;10.024;2024-02-21T03:01:50;11.27;;;1.57;;
8500;SDS011;4288;48.484;10.024;2024-02-21T03:04:17;5.30;;;1.10;;
8500;SDS011;4288;48.484;10.024;2024-02-21T03:06:45;11.40;;;1.50;;
8500;SDS011;4288;48.484;10.024;2024-02-21T03:09:12;4.83;;;1.67;;
8500;SDS011;4288;48.484;10.024;2024-02-21T03:11:40;5.40;;;1.30;;
8500;SDS011;4288;48.484;10.024;2024-02-21T03:14:09;7.27;;;1.63;;
8500;SDS011;4288;48.484;10.024;2024-02-21T03:16:38;5.50;;;1.20;;
8500;SDS011;4288;48.484;10.024;2024-02-21T03:19:05;5.70;;;1.67;;
8500;SDS011;4288;48.484;10.024;2024-02-21T03:21:33;2.43;;;1.33;;
8500;SDS011;4288;48.484;10.024;2024-02-21T03:24:00;4.13;;;1.37;;
8500;SDS011;4288;48.484;10.024;2024-02-21T03:26:27;3.20;;;1.27;;
8500;SDS011;4288;48.484;10.024;2024-02-21T03:28:55;4.77;;;1.63;;
8500;SDS011;4288;48.484;10.024;2024-02-21T03:31:22;4.67;;;1.37;;
8500;SDS011;4288;48.484;10.024;2024-02-21T03:33:51;5.47;;;1.70;;
8500;SDS011;4288;48.484;10.024;2024-02-21T03:36:19;7.90;;;1.80;;
8500;SDS011;4288;48.484;10.024;2024-02-21T03:38:46;4.30;;;1.60;;
8500;SDS011;4288;48.484;10.024;2024-02-21T03:41:13;5.63;;;1.53;;
8500;SDS011;4288;48.484;10.024;2024-02-21T03:43:41;4.87;;;1.43;;
8500;SDS011;4288;48.484;10.024;2024-02-21T03:46:08;3.97;;;1.30;;
8500;SDS011;4288;48.484;10.024;2024-02-21T03:48:36;5.53;;;1.60;;
8500;SDS011;4288;48.484;10.024;2024-02-21T03:51:05;4.40;;;1.47;;
8500;SDS011;4288;48.484;10.024;2024-02-21T03:53:32;4.23;;;2.00;;
8500;SDS011;4288;48.484;10.024;2024-02-21T03:56:00;7.17;;;1.57;;
8500;SDS011;4288;48.484;10.024;2024-02-21T03:58:29;6.93;;;1.90;;
8500;SDS011;4288;48.484;10.024;2024-02-21T04:00:56;3.90;;;1.60;;
8500;SDS011;4288;48.484;10.024;2024-02-21T04:03:26;8.73;;;1.47;;
8500;SDS011;4288;48.484;10.024;2024-02-21T04:05:53;6.10;;;1.43;;
8500;SDS011;4288;48.484;10.024;2024-02-21T04:08:22;9.33;;;3.73;;
8500;SDS011;4288;48.484;10.024;2024-02-21T04:10:50;4.37;;;1.30;;
8500;SDS011;4288;48.484;10.024;2024-02-21T04:13:17;5.70;;;1.50;;
8500;SDS011;4288;48.484;10.024;2024-02-21T04:15:45;5.73;;;1.77;;
8500;SDS011;4288;48.484;10.024;2024-02-21T04:18:12;6.60;;;1.87;;
8500;SDS011;4288;48.484;10.024;2024-02-21T04:20:40;4.60;;;1.63;;
8500;SDS011;4288;48.484;10.024;2024-02-21T04:23:07;6.10;;;1.40;;
8500;SDS011;4288;48.484;10.024;2024-02-21T04:25:36;8.20;;;1.70;;
8500;SDS011;4288;48.484;10.024;2024-02-21T04:28:03;8.87;;;2.30;;
8500;SDS011;4288;48.484;10.024;2024-02-21T04:30:31;2.73;;;1.67;;
8500;SDS011;4288;48.484;10.024;2024-02-21T04:32:59;6.67;;;1.57;;
8500;SDS011;4288;48.484;10.024;2024-02-21T04:35:26;15.70;;;1.60;;
8500;SDS011;4288;48.484;10.024;2024-02-21T04:37:54;12.30;;;2.10;;
8500;SDS011;4288;48.484;10.024;2024-02-21T04:40:22;4.23;;;1.90;;
8500;SDS011;4288;48.484;10.024;2024-02-21T04:42:50;5.93;;;2.00;;
8500;SDS011;4288;48.484;10.024;2024-02-21T04:45:18;8.30;;;2.13;;
8500;SDS011;4288;48.484;10.024;2024-02-21T04:47:45;6.27;;;2.07;;
8500;SDS011;4288;48.484;10.024;2024-02-21T04:50:13;9.10;;;2.20;;
8500;SDS011;4288;48.484;10.024;2024-02-21T04:52:40;4.77;;;1.90;;
8500;SDS011;4288;48.484;10.024;2024-02-21T04:55:08;10.17;;;2.27;;
8500;SDS011;4288;48.484;10.024;2024-02-21T04:57:35;4.50;;;2.03;;
8500;SDS011;4288;48.484;10.024;2024-02-21T05:00:04;6.50;;;1.97;;
8500;SDS011;4288;48.484;10.024;2024-02-21T05:02:32;4.80;;;1.80;;
8500;SDS011;4288;48.484;10.024;2024-02-21T05:05:00;6.30;;;2.80;;
8500;SDS011;4288;48.484;10.024;2024-02-21T05:07:28;14.10;;;3.27;;
8500;SDS011;4288;48.484;10.024;2024-02-21T05:09:55;5.90;;;2.53;;
8500;SDS011;4288;48.484;10.024;2024-02-21T05:12:22;6.63;;;2.20;;
8500;SDS011;4288;48.484;10.024;2024-02-21T05:14:50;7.70;;;2.20;;
8500;SDS011;4288;48.484;10.024;2024-02-21T05:17:18;4.60;;;2.20;;
8500;SDS011;4288;48.484;10.024;2024-02-21T05:19:46;3.53;;;1.53;;
8500;SDS011;4288;48.484;10.024;2024-02-21T05:22:13;10.43;;;3.10;;
8500;SDS011;4288;48.484;10.024;2024-02-21T05:24:40;7.63;;;2.50;;
8500;SDS011;4288;48.484;10.024;2024-02-21T05:27:08;4.20;;;2.40;;
8500;SDS011;4288;48.484;10.024;2024-02-21T05:29:35;8.80;;;2.70;;
8500;SDS011;4288;48.484;10.024;2024-02-21T05:32:03;11.80;;;3.17;;
8500;SDS011;4288;48.484;10.024;2024-02-21T05:34:32;9.30;;;3.10;;
8500;SDS011;4288;48.484;10.024;2024-02-21T05:36:59;8.93;;;3.40;;
8500;SDS011;4288;48.484;10.024;2024-02-21T05:39:27;11.80;;;3.13;;
8500;SDS011;4288;48.484;10.024;2024-02-21T05:41:54;6.63;;;3.43;;
8500;SDS011;4288;48.484;10.024;2024-02-21T05:44:22;9.50;;;3.73;;
8500;SDS011;4288;48.484;10.024;2024-02-21T05:46:49;7.27;;;2.80;;
8500;SDS011;4288;48.484;10.024;2024-02-21T05:49:16;6.87;;;4.43;;
8500;SDS011;4288;48.484;10.024;2024-02-21T05:51:45;4.03;;;3.00;;
8500;SDS011;4288;48.484;10.024;2024-02-21T05:54:13;10.47;;;4.80;;
8500;SDS011;4288;48.484;10.024;2024-02-21T05:56:43;9.07;;;3.10;;
8500;SDS011;4288;48.484;10.024;2024-02-21T05:59:12;6.13;;;3.20;;
8500;SDS011;4288;48.484;10.024;2024-02-21T06:01:39;7.33;;;3.93;;
8500;SDS011;4288;48.484;10.024;2024-02-21T06:04:07;9.27;;;3.30;;
8500;SDS011;4288;48.484;10.024;2024-02-21T06:06:34;5.20;;;3.60;;
8500;SDS011;4288;48.484;10.024;2024-02-21T06:09:03;9.27;;;3.10;;
8500;SDS011;4288;48.484;10.024;2024-02-21T06:11:31;7.77;;;3.60;;
8500;SDS011;4288;48.484;10.024;2024-02-21T06:13:58;6.63;;;3.20;;
8500;SDS011;4288;48.484;10.024;2024-02-21T06:16:25;7.23;;;3.27;;
8500;SDS011;4288;48.484;10.024;2024-02-21T06:18:53;7.20;;;3.73;;
8500;SDS011;4288;48.484;10.024;2024-02-21T06:21:20;4.07;;;2.73;;
8500;SDS011;4288;48.484;10.024;2024-02-21T06:23:48;16.10;;;4.67;;
8500;SDS011;4288;48.484;10.024;2024-02-21T06:26:16;10.20;;;3.93;;
8500;SDS011;4288;48.484;10.024;2024-02-21T06:28:44;4.93;;;3.20;;
8500;SDS011;4288;48.484;10.024;2024-02-21T06:31:11;6.73;;;3.10;;
8500;SDS011;4288;48.484;10.024;2024-02-21T06:33:41;7.90;;;3.53;;
8500;SDS011;4288;48.484;10.024;2024-02-21T06:36:08;6.43;;;3.50;;
8500;SDS011;4288;48.484;10.024;2024-02-21T06:38:35;11.30;;;3.80;;
8500;SDS011;4288;48.484;10.024;2024-02-21T06:41:03;8.70;;;3.70;;
8500;SDS011;4288;48.484;10.024;2024-02-21T06:43:32;13.60;;;4.70;;
8500;SDS011;4288;48.484;10.024;2024-02-21T06:45:59;8.83;;;4.23;;
8500;SDS011;4288;48.484;10.024;2024-02-21T06:48:26;9.20;;;4.37;;
8500;SDS011;4288;48.484;10.024;2024-02-21T06:50:54;6.37;;;3.33;;
8500;SDS011;4288;48.484;10.024;2024-02-21T06:53:21;6.10;;;3.40;;
8500;SDS011;4288;48.484;10.024;2024-02-21T06:55:49;6.33;;;2.73;;
8500;SDS011;4288;48.484;10.024;2024-02-21T06:58:16;8.10;;;3.47;;
8500;SDS011;4288;48.484;10.024;2024-02-21T07:00:45;9.50;;;3.63;;
8500;SDS011;4288;48.484;10.024;2024-02-21T07:03:12;12.00;;;3.43;;
8500;SDS011;4288;48.484;10.024;2024-02-21T07:05:39;8.33;;;3.70;;
8500;SDS011;4288;48.484;10.024;2024-02-21T07:08:07;7.33;;;3.20;;
8500;SDS011;4288;48.484;10.024;2024-02-21T07:10:34;8.93;;;3.50;;
8500;SDS011;4288;48.484;10.024;2024-02-21T07:13:02;10.27;;;3.60;;
8500;SDS011;4288;48.484;10.024;2024-02-21T07:15:29;11.27;;;4.23;;
8500;SDS011;4288;48.484;10.024;2024-02-21T07:17:59;10.93;;;3.57;;
8500;SDS011;4288;48.484;10.024;2024-02-21T07:20:26;11.67;;;4.03;;
8500;SDS011;4288;48.484;10.024;2024-02-21T07:22:54;7.60;;;3.57;;
8500;SDS011;4288;48.484;10.024;2024-02-21T07:25:21;4.20;;;3.10;;
8500;SDS011;4288;48.484;10.024;2024-02-21T07:27:48;4.50;;;3.07;;
8500;SDS011;4288;48.484;10.024;2024-02-21T07:30:16;9.07;;;3.50;;
8500;SDS011;4288;48.484;10.024;2024-02-21T07:32:43;8.53;;;2.40;;
8500;SDS011;4288;48.484;10.024;2024-02-21T07:35:12;5.70;;;2.87;;
8500;SDS011;4288;48.484;10.024;2024-02-21T07:37:40;6.30;;;2.80;;
8500;SDS011;4288;48.484;10.024;2024-02-21T07:40:11;7.70;;;3.00;;
8500;SDS011;4288;48.484;10.024;2024-02-21T07:42:39;10.47;;;3.10;;
8500;SDS011;4288;48.484;10.024;2024-02-21T07:45:07;8.47;;;2.77;;
8500;SDS011;4288;48.484;10.024;2024-02-21T07:47:35;7.70;;;3.40;;
8500;SDS011;4288;48.484;10.024;2024-02-21T07:50:03;4.07;;;2.23;;
8500;SDS011;4288;48.484;10.024;2024-02-21T07:52:33;9.03;;;2.63;;
8500;SDS011;4288;48.484;10.024;2024-02-21T07:55:00;3.20;;;2.50;;
8500;SDS011;4288;48.484;10.024;2024-02-21T07:57:28;9.70;;;3.67;;
8500;SDS011;4288;48.484;10.024;2024-02-21T07:59:56;5.20;;;2.50;;
8500;SDS011;4288;48.484;10.024;2024-02-21T08:02:23;7.03;;;2.80;;
8500;SDS011;4288;48.484;10.024;2024-02-21T08:04:50;6.50;;;2.80;;
8500;SDS011;4288;48.484;10.024;2024-02-21T08:16:27;5.67;;;2.87;;
8500;SDS011;4288;48.484;10.024;2024-02-21T08:18:55;6.03;;;2.37;;
8500;SDS011;4288;48.484;10.024;2024-02-21T08:21:23;9.90;;;2.03;;
8500;SDS011;4288;48.484;10.024;2024-02-21T08:23:50;7.60;;;1.87;;
8500;SDS011;4288;48.484;10.024;2024-02-21T08:26:19;4.07;;;2.50;;
8500;SDS011;4288;48.484;10.024;2024-02-21T08:28:46;6.67;;;2.27;;
8500;SDS011;4288;48.484;10.024;2024-02-21T08:31:18;7.80;;;2.47;;
8500;SDS011;4288;48.484;10.024;2024-02-21T08:33:47;6.47;;;1.70;;
8500;SDS011;4288;48.484;10.024;2024-02-21T08:36:17;7.67;;;3.17;;
8500;SDS011;4288;48.484;10.024;2024-02-21T08:38:45;6.00;;;2.30;;
8500;SDS011;4288;48.484;10.024;2024-02-21T08:41:12;5.57;;;2.50;;
8500;SDS011;4288;48.484;10.024;2024-02-21T08:43:40;12.87;;;2.60;;
8500;SDS011;4288;48.484;10.024;2024-02-21T08:46:07;6.43;;;2.70;;
8500;SDS011;4288;48.484;10.024;2024-02-21T08:48:35;5.33;;;2.03;;
8500;SDS011;4288;48.484;10.024;2024-02-21T08:51:04;8.30;;;2.10;;
8500;SDS011;4288;48.484;10.024;2024-02-21T08:53:31;10.87;;;2.50;;
8500;SDS011;4288;48.484;10.024;2024-02-21T08:55:59;8.93;;;2.23;;
8500;SDS011;4288;48.484;10.024;2024-02-21T08:58:26;11.50;;;2.43;;
8500;SDS011;4288;48.484;10.024;2024-02-21T09:00:53;7.77;;;2.63;;
8500;SDS011;4288;48.484;10.024;2024-02-21T09:03:21;8.60;;;5.00;;
8500;SDS011;4288;48.484;10.024;2024-02-21T09:05:49;6.57;;;2.70;;
8500;SDS011;4288;48.484;10.024;2024-02-21T09:08:18;12.90;;;3.00;;
8500;SDS011;4288;48.484;10.024;2024-02-21T09:10:46;7.70;;;2.33;;
8500;SDS011;4288;48.484;10.024;2024-02-21T09:13:14;6.97;;;3.40;;
8500;SDS011;4288;48.484;10.024;2024-02-21T09:15:42;9.93;;;3.40;;
8500;SDS011;4288;48.484;10.024;2024-02-21T09:18:09;6.87;;;3.10;;
8500;SDS011;4288;48.484;10.024;2024-02-21T09:20:37;5.97;;;3.33;;
8500;SDS011;4288;48.484;10.024;2024-02-21T09:23:04;8.83;;;2.60;;
8500;SDS011;4288;48.484;10.024;2024-02-21T09:25:33;7.70;;;2.47;;
8500;SDS011;4288;48.484;10.024;2024-02-21T09:28:01;9.77;;;3.33;;
8500;SDS011;4288;48.484;10.024;2024-02-21T09:30:28;18.00;;;3.83;;
8500;SDS011;4288;48.484;10.024;2024-02-21T09:32:56;5.17;;;2.47;;
8500;SDS011;4288;48.484;10.024;2024-02-21T09:35:25;7.10;;;3.03;;
8500;SDS011;4288;48.484;10.024;2024-02-21T09:37:52;10.30;;;4.37;;
8500;SDS011;4288;48.484;10.024;2024-02-21T09:40:20;3.20;;;2.40;;
8500;SDS011;4288;48.484;10.024;2024-02-21T09:42:49;8.27;;;2.37;;
8500;SDS011;4288;48.484;10.024;2024-02-21T09:45:27;5.73;;;2.90;;
8500;SDS011;4288;48.484;10.024;2024-02-21T09:48:00;11.50;;;2.60;;
8500;SDS011;4288;48.484;10.024;2024-02-21T09:50:45;6.90;;;2.33;;
8500;SDS011;4288;48.484;10.024;2024-02-21T09:53:15;2.60;;;1.70;;
8500;SDS011;4288;48.484;10.024;2024-02-21T09:55:44;5.90;;;2.57;;
8500;SDS011;4288;48.484;10.024;2024-02-21T09:58:14;6.43;;;2.57;;
8500;SDS011;4288;48.484;10.024;2024-02-21T10:00:41;5.10;;;2.03;;
8500;SDS011;4288;48.484;10.024;2024-02-21T10:03:09;6.30;;;2.23;;
8500;SDS011;4288;48.484;10.024;2024-02-21T10:05:38;7.10;;;2.90;;
8500;SDS011;4288;48.484;10.024;2024-02-21T10:08:13;6.73;;;2.37;;
8500;SDS011;4288;48.484;10.024;2024-02-21T10:10:44;6.60;;;2.77;;
8500;SDS011;4288;48.484;10.024;2024-02-21T10:13:23;15.13;;;2.73;;
8500;SDS011;4288;48.484;10.024;2024-02-21T10:16:00;3.87;;;1.77;;
8500;SDS011;4288;48.484;10.024;2024-02-21T10:18:28;4.67;;;1.97;;
8500;SDS011;4288;48.484;10.024;2024-02-21T10:21:02;4.57;;;1.97;;
8500;SDS011;4288;48.484;10.024;2024-02-21T10:23:40;7.10;;;1.97;;
8500;SDS011;4288;48.484;10.024;2024-02-21T10:26:09;5.70;;;1.40;;
8500;SDS011;4288;48.484;10.024;2024-02-21T10:28:38;7.17;;;2.27;;
8500;SDS011;4288;48.484;10.024;2024-02-21T10:31:07;1.77;;;1.30;;
8500;SDS011;4288;48.484;10.024;2024-02-21T10:33:36;3.43;;;1.60;;
8500;SDS011;4288;48.484;10.024;2024-02-21T10:36:07;5.43;;;1.53;;
8500;SDS011;4288;48.484;10.024;2024-02-21T10:38:36;7.77;;;1.80;;
8500;SDS011;4288;48.484;10.024;2024-02-21T10:41:04;4.40;;;1.73;;
8500;SDS011;4288;48.484;10.024;2024-02-21T10:43:33;4.10;;;1.57;;
8500;SDS011;4288;48.484;10.024;2024-02-21T10:46:06;8.20;;;1.70;;
8500;SDS011;4288;48.484;10.024;2024-02-21T10:48:38;2.60;;;1.70;;
8500;SDS011;4288;48.484;10.024;2024-02-21T10:51:13;2.37;;;1.57;;
8500;SDS011;4288;48.484;10.024;2024-02-21T10:53:46;4.33;;;1.50;;
8500;SDS011;4288;48.484;10.024;2024-02-21T10:56:24;7.93;;;1.60;;
8500;SDS011;4288;48.484;10.024;2024-02-21T10:58:56;2.73;;;1.10;;
8500;SDS011;4288;48.484;10.024;2024-02-21T11:01:27;4.03;;;1.40;;
8500;SDS011;4288;48.484;10.024;2024-02-21T11:03:57;4.20;;;1.67;;
8500;SDS011;4288;48.484;10.024;2024-02-21T11:06:27;3.57;;;1.20;;
8500;SDS011;4288;48.484;10.024;2024-02-21T11:09:02;5.73;;;1.27;;
8500;SDS011;4288;48.484;10.024;2024-02-21T11:11:30;4.50;;;1.63;;
8500;SDS011;4288;48.484;10.024;2024-02-21T11:14:05;7.23;;;1.83;;
8500;SDS011;4288;48.484;10.024;2024-02-21T11:16:36;6.13;;;1.13;;
8500;SDS011;4288;48.484;10.024;2024-02-21T11:19:07;1.80;;;1.10;;
8500;SDS011;4288;48.484;10.024;2024-02-21T11:21:36;2.00;;;1.27;;
8500;SDS011;4288;48.484;10.024;2024-02-21T11:24:04;3.23;;;1.00;;
8500;SDS011;4288;48.484;10.024;2024-02-21T11:26:32;4.60;;;1.30;;
8500;SDS011;4288;48.484;10.024;2024-02-21T11:28:59;2.40;;;1.30;;
8500;SDS011;4288;48.484;10.024;2024-02-21T11:31:39;3.63;;;1.70;;
8500;SDS011;4288;48.484;10.024;2024-02-21T11:34:10;2.03;;;1.37;;
8500;SDS011;4288;48.484;10.024;2024-02-21T11:36:46;2.93;;;1.13;;
8500;SDS011;4288;48.484;10.024;2024-02-21T11:39:18;3.40;;;1.37;;
8500;SDS011;4288;48.484;10.024;2024-02-21T11:41:47;1.30;;;1.00;;
8500;SDS011;4288;48.484;10.024;2024-02-21T11:44:26;2.00;;;0.90;;
8500;SDS011;4288;48.484;10.024;2024-02-21T11:46:55;1.93;;;1.23;;
8500;SDS011;4288;48.484;10.024;2024-02-21T11:49:24;5.20;;;2.20;;
8500;SDS011;4288;48.484;10.024;2024-02-21T11:51:57;2.60;;;1.23;;
8500;SDS011;4288;48.484;10.024;2024-02-21T11:54:25;1.77;;;1.20;;
8500;SDS011;4288;48.484;10.024;2024-02-21T11:56:53;2.37;;;1.30;;
8500;SDS011;4288;48.484;10.024;2024-02-21T11:59:20;1.27;;;1.03;;
8500;SDS011;4288;48.484;10.024;2024-02-21T12:01:48;2.50;;;1.40;;
8500;SDS011;4288;48.484;10.024;2024-02-21T12:04:18;2.10;;;1.13;;
8500;SDS011;4288;48.484;10.024;2024-02-21T12:06:46;3.50;;;1.73;;
8500;SDS011;4288;48.484;10.024;2024-02-21T12:09:13;3.70;;;1.47;;
8500;SDS011;4288;48.484;10.024;2024-02-21T12:11:42;5.10;;;1.77;;
8500;SDS011;4288;48.484;10.024;2024-02-21T12:14:09;2.23;;;1.30;;
8500;SDS011;4288;48.484;10.024;2024-02-21T12:16:37;5.40;;;2.60;;
8500;SDS011;4288;48.484;10.024;2024-02-21T12:19:04;3.17;;;1.30;;
8500;SDS011;4288;48.484;10.024;2024-02-21T12:21:33;6.50;;;3.30;;
8500;SDS011;4288;48.484;10.024;2024-02-21T12:24:11;3.43;;;1.37;;
8500;SDS011;4288;48.484;10.024;2024-02-21T12:26:39;2.40;;;1.30;;
8500;SDS011;4288;48.484;10.024;2024-02-21T12:29:06;2.40;;;1.10;;
8500;SDS011;4288;48.484;10.024;2024-02-21T12:31:35;2.90;;;1.20;;
8500;SDS011;4288;48.484;10.024;2024-02-21T12:34:03;3.13;;;1.40;;
8500;SDS011;4288;48.484;10.024;2024-02-21T12:36:30;2.40;;;1.53;;
8500;SDS011;4288;48.484;10.024;2024-02-21T12:38:59;2.40;;;1.67;;
8500;SDS011;4288;48.484;10.024;2024-02-21T12:41:28;12.10;;;1.50;;
8500;SDS011;4288;48.484;10.024;2024-02-21T12:43:57;4.93;;;1.63;;
8500;SDS011;4288;48.484;10.024;2024-02-21T12:46:24;4.13;;;1.40;;
8500;SDS011;4288;48.484;10.024;2024-02-21T12:48:52;1.87;;;1.30;;
8500;SDS011;4288;48.484;10.024;2024-02-21T12:51:19;2.30;;;1.37;;
8500;SDS011;4288;48.484;10.024;2024-02-21T12:53:46;2.90;;;1.90;;
8500;SDS011;4288;48.484;10.024;2024-02-21T12:56:17;2.00;;;1.30;;
8500;SDS011;4288;48.484;10.024;2024-02-21T12:58:44;2.43;;;1.40;;
8500;SDS011;4288;48.484;10.024;2024-02-21T13:01:12;2.30;;;1.23;;
8500;SDS011;4288;48.484;10.024;2024-02-21T13:03:40;2.37;;;1.10;;
8500;SDS011;4288;48.484;10.024;2024-02-21T13:06:08;3.30;;;1.23;;
8500;SDS011;4288;48.484;10.024;2024-02-21T13:08:35;1.90;;;1.17;;
8500;SDS011;4288;48.484;10.024;2024-02-21T13:11:03;1.53;;;1.20;;
8500;SDS011;4288;48.484;10.024;2024-02-21T13:13:32;2.00;;;1.30;;
8500;SDS011;4288;48.484;10.024;2024-02-21T13:16:00;3.63;;;1.10;;
8500;SDS011;4288;48.484;10.024;2024-02-21T13:18:28;6.33;;;2.03;;
8500;SDS011;4288;48.484;10.024;2024-02-21T13:20:57;5.33;;;1.63;;
8500;SDS011;4288;48.484;10.024;2024-02-21T13:23:25;2.47;;;1.00;;
8500;SDS011;4288;48.484;10.024;2024-02-21T13:25:52;1.77;;;0.80;;
8500;SDS011;4288;48.484;10.024;2024-02-21T13:28:20;1.50;;;0.87;;
8500;SDS011;4288;48.484;10.024;2024-02-21T13:30:49;2.00;;;1.33;;
8500;SDS011;4288;48.484;10.024;2024-02-21T13:33:16;2.40;;;1.23;;
8500;SDS011;4288;48.484;10.024;2024-02-21T13:35:44;1.93;;;1.13;;
8500;SDS011;4288;48.484;10.024;2024-02-21T13:38:11;2.13;;;1.00;;
8500;SDS011;4288;48.484;10.024;2024-02-21T13:40:39;2.60;;;0.90;;
8500;SDS011;4288;48.484;10.024;2024-02-21T13:43:08;6.23;;;1.13;;
8500;SDS011;4288;48.484;10.024;2024-02-21T13:45:35;1.67;;;0.83;;
8500;SDS011;4288;48.484;10.024;2024-02-21T13:48:04;3.70;;;1.10;;
8500;SDS011;4288;48.484;10.024;2024-02-21T13:50:35;2.77;;;1.00;;
8500;SDS011;4288;48.484;10.024;2024-02-21T13:53:07;3.67;;;1.77;;
8500;SDS011;4288;48.484;10.024;2024-02-21T13:55:35;0.97;;;0.93;;
8500;SDS011;4288;48.484;10.024;2024-02-21T13:58:03;1.10;;;1.00;;
8500;SDS011;4288;48.484;10.024;2024-02-21T14:00:30;1.73;;;1.20;;
8500;SDS011;4288;48.484;10.024;2024-02-21T14:02:59;2.53;;;1.07;;
8500;SDS011;4288;48.484;10.024;2024-02-21T14:05:28;2.10;;;0.80;;
8500;SDS011;4288;48.484;10.024;2024-02-21T14:07:55;1.50;;;0.83;;
8500;SDS011;4288;48.484;10.024;2024-02-21T14:10:23;2.00;;;0.60;;
8500;SDS011;4288;48.484;10.024;2024-02-21T14:12:50;2.23;;;1.20;;
8500;SDS011;4288;48.484;10.024;2024-02-21T14:15:18;3.83;;;1.80;;
8500;SDS011;4288;48.484;10.024;2024-02-21T14:17:45;3.57;;;1.23;;
8500;SDS011;4288;48.484;10.024;2024-02-21T14:20:13;0.93;;;0.87;;
8500;SDS011;4288;48.484;10.024;2024-02-21T14:22:41;1.53;;;0.87;;
8500;SDS011;4288;48.484;10.024;2024-02-21T14:25:09;1.67;;;0.70;;
8500;SDS011;4288;48.484;10.024;2024-02-21T14:27:37;1.63;;;0.90;;
8500;SDS011;4288;48.484;10.024;2024-02-21T14:30:05;1.10;;;0.90;;
8500;SDS011;4288;48.484;10.024;2024-02-21T14:32:35;2.20;;;0.90;;
8500;SDS011;4288;48.484;10.024;2024-02-21T14:35:03;1.50;;;0.90;;
8500;SDS011;4288;48.484;10.024;2024-02-21T14:37:31;0.80;;;0.80;;
8500;SDS011;4288;48.484;10.024;2024-02-21T14:40:00;3.03;;;0.97;;
8500;SDS011;4288;48.484;10.024;2024-02-21T14:42:28;1.77;;;1.20;;
8500;SDS011;4288;48.484;10.024;2024-02-21T14:44:55;1.17;;;0.90;;
8500;SDS011;4288;48.484;10.024;2024-02-21T14:47:28;3.53;;;1.17;;
8500;SDS011;4288;48.484;10.024;2024-02-21T14:49:56;1.43;;;0.80;;
8500;SDS011;4288;48.484;10.024;2024-02-21T14:52:24;2.07;;;0.90;;
8500;SDS011;4288;48.484;10.024;2024-02-21T14:54:52;1.53;;;0.90;;
8500;SDS011;4288;48.484;10.024;2024-02-21T14:57:21;3.07;;;1.23;;
8500;SDS011;4288;48.484;10.024;2024-02-21T14:59:50;1.40;;;1.13;;
8500;SDS011;4288;48.484;10.024;2024-02-21T15:02:21;3.13;;;1.20;;
8500;SDS011;4288;48.484;10.024;2024-02-21T15:04:48;3.63;;;1.20;;
8500;SDS011;4288;48.484;10.024;2024-02-21T15:07:16;3.07;;;1.10;;
8500;SDS011;4288;48.484;10.024;2024-02-21T15:09:44;3.60;;;0.87;;
8500;SDS011;4288;48.484;10.024;2024-02-21T15:12:12;2.40;;;1.10;;
8500;SDS011;4288;48.484;10.024;2024-02-21T15:14:41;3.07;;;1.27;;
8500;SDS011;4288;48.484;10.024;2024-02-21T15:17:09;2.73;;;1.00;;